Flight Track Log - Related Links

Times and Time Zones

All times are in EDT time to prevent confusion due to time zone crossing. See the AWE1253 flight status page for this flight to view local times or setup timezone preferences in your user account.


Time Position Orientation Groundspeed Altitude Reporting Facility
EDT Latitude Longitude Course Direction KTS MPH feet Rate Location/Type
Sun 08:56:18 PM 39.8833 -75.2167 201° Southwest 173 199 700  Level Philadelphia TRACON
Sun 08:56:42 PM 39.8667 -75.2000 142° Southeast 180 207 1,500 2,357 Climbing Philadelphia TRACON
Sun 08:57:42 PM 39.8500 -75.1333 108° East 225 259 4,000 2,545 Climbing Philadelphia TRACON
Sun 08:59:00 PM 39.5167 -75.3143 186° South  Level FlightAware Approximate
Sun 09:00:00 PM 39.3940 -75.3377 185° South  Level FlightAware Approximate
Sun 09:00:00 PM 39.7192 -75.1706 192° South 216 249 9,900  Level Washington Center
Sun 09:01:00 PM 39.2707 -75.3563 201° Southwest  Level FlightAware Approximate
Sun 09:01:00 PM 39.6506 -75.2197 209° Southwest 256 295 11,800  Level Washington Center
Sun 09:02:01 PM 39.5694 -75.2792 209° Southwest 307 353 12,400 1,686 Climbing Washington Center
Sun 09:03:01 PM 39.4778 -75.3361 206° Southwest 347 399 15,200 1,785 Climbing Washington Center
Sun 09:04:02 PM 39.3736 -75.3525 187° South 367 422 16,000 353 Climbing Washington Center
Sun 09:05:00 PM 39.2778 -75.3692 188° South 367 422 15,900 51 Descending Washington Center
Sun 09:06:00 PM 39.1819 -75.3881 189° South 362 417 16,100 992 Climbing Washington Center
Sun 09:07:01 PM 39.0842 -75.3992 185° South 356 410 17,900 1,983 Climbing Washington Center
Sun 09:08:01 PM 38.9819 -75.4128 186° South 356 410 20,100 2,168 Climbing Washington Center
Sun 09:09:00 PM 38.8756 -75.4342 189° South 374 430 22,200 2,000 Climbing Washington Center
Sun 09:10:01 PM 38.7653 -75.4478 185° South 391 450 24,100 1,721 Climbing Washington Center
Sun 09:11:02 PM 38.6506 -75.4667 187° South 401 461 25,700 1,714 Climbing Washington Center
Sun 09:12:00 PM 38.5358 -75.4856 187° South 414 476 27,500 1,815 Climbing Washington Center
Sun 09:13:01 PM 38.4192 -75.5017 186° South 424 488 29,300 1,563 Climbing Washington Center
Sun 09:13:59 PM 38.3067 -75.5336 193° South 424 488 30,600 1,361 Climbing Washington Center
Sun 09:15:00 PM 38.2064 -75.5969 206° Southwest 416 479 32,000 689 Climbing Washington Center
Sun 09:16:01 PM 38.1042 -75.6603 206° Southwest 416 479 32,000  Level Washington Center
Sun 09:17:02 PM 38.0042 -75.7289 208° Southwest 411 473 32,000  Level Washington Center
Sun 09:18:00 PM 37.9039 -75.7944 207° Southwest 411 473 32,000  Level Washington Center
Sun 09:19:00 PM 37.7994 -75.8494 203° Southwest 411 473 32,000  Level Washington Center
Sun 09:20:01 PM 37.6992 -75.9197 209° Southwest 406 467 32,000  Level Washington Center
Sun 09:21:02 PM 37.5969 -75.9822 206° Southwest 406 467 32,000  Level Washington Center
Sun 09:22:00 PM 37.4944 -76.0419 205° Southwest 406 467 32,000  Level Washington Center
Sun 09:23:02 PM 37.3919 -76.1067 207° Southwest 406 467 32,000  Level Washington Center
Sun 09:24:00 PM 37.2875 -76.1661 204° Southwest 406 467 32,000  Level Washington Center
Sun 09:25:01 PM 37.1850 -76.2253 205° Southwest 412 474 32,000  Level Washington Center
Sun 09:26:03 PM 37.0803 -76.2894 206° Southwest 412 474 32,000  Level Washington Center
Sun 09:27:00 PM 36.9778 -76.3536 207° Southwest 412 474 32,000  Level Washington Center
Sun 09:28:01 PM 36.8731 -76.4150 205° Southwest 412 474 32,000  Level Washington Center
Sun 09:29:00 PM 36.7683 -76.4761 205° Southwest 412 474 32,000  Level Washington Center
Sun 09:30:01 PM 36.6781 -76.5347 208° Southwest 412 474 32,000  Level Washington Center
Sun 09:31:02 PM 36.5733 -76.5956 205° Southwest 417 480 32,000  Level Washington Center
Sun 09:32:00 PM 36.4706 -76.6561 205° Southwest 417 480 32,000  Level Washington Center
Sun 09:33:01 PM 36.3678 -76.7167 205° Southwest 417 480 32,000  Level Washington Center
Sun 09:34:00 PM 36.2628 -76.7769 205° Southwest 417 480 32,000  Level Washington Center
Sun 09:35:00 PM 36.1581 -76.8372 205° Southwest 417 480 32,000  Level Washington Center
Sun 09:36:01 PM 36.0550 -76.8972 205° Southwest 411 473 32,000  Level Washington Center
Sun 09:37:02 PM 35.9500 -76.9594 206° Southwest 411 473 32,000  Level Washington Center
Sun 09:38:00 PM 35.8428 -77.0217 205° Southwest 416 479 32,000  Level Washington Center
Sun 09:39:02 PM 35.7419 -77.0839 207° Southwest 416 479 32,000  Level Washington Center
Sun 09:40:02 PM 35.6392 -77.1408 204° Southwest 416 479 32,000  Level Washington Center
Sun 09:41:00 PM 35.5361 -77.2028 206° Southwest 410 472 32,000  Level Washington Center
Sun 09:42:00 PM 35.4331 -77.2617 205° Southwest 410 472 32,000  Level Washington Center
Sun 09:43:01 PM 35.3319 -77.3208 206° Southwest 405 466 32,000  Level Washington Center
Sun 09:44:02 PM 35.2247 -77.3819 205° Southwest 405 466 32,000  Level Washington Center
Sun 09:45:02 PM 35.1217 -77.4381 204° Southwest 410 472 32,000  Level Washington Center
Sun 09:46:00 PM 35.0161 -77.5017 206° Southwest 410 472 32,000  Level Washington Center
Sun 09:47:00 PM 34.9111 -77.5575 204° Southwest 415 478 32,000  Level Washington Center
Sun 09:48:00 PM 34.8078 -77.6208 207° Southwest 415 478 32,000  Level Washington Center
Sun 09:49:01 PM 34.7022 -77.6839 206° Southwest 415 478 32,000  Level Washington Center
Sun 09:50:02 PM 34.5969 -77.7417 204° Southwest 420 483 32,000  Level Washington Center
Sun 09:51:02 PM 34.4936 -77.7994 205° Southwest 420 483 32,000  Level Washington Center
Sun 09:52:00 PM 34.3861 -77.8594 205° Southwest 420 483 32,000  Level Washington Center
Sun 09:54:28 PM 34.1025 -77.9447 194° South 432 497 32,000  Level Jacksonville Center
Sun 09:55:28 PM 33.9889 -77.9786 194° South 432 497 32,000  Level Jacksonville Center
Sun 09:56:28 PM 33.8733 -78.0103 193° South 427 491 32,000  Level Jacksonville Center
Sun 09:57:28 PM 33.7600 -78.0464 195° South 427 491 32,000  Level Jacksonville Center
Sun 09:58:28 PM 33.6425 -78.0803 194° South 434 499 32,000  Level Jacksonville Center
Sun 09:59:28 PM 33.5289 -78.1139 194° South 428 493 32,000  Level Jacksonville Center
Sun 10:00:28 PM 33.4111 -78.1453 193° South 428 493 32,000  Level Jacksonville Center
Sun 10:01:28 PM 33.2956 -78.1786 194° South 428 493 32,000  Level Jacksonville Center
Sun 10:02:28 PM 33.1778 -78.2097 192° South 428 493 32,000  Level Jacksonville Center
Sun 10:03:28 PM 33.0622 -78.2456 195° South 428 493 32,000  Level Jacksonville Center
Sun 10:04:28 PM 32.9444 -78.2789 193° South 428 493 32,000  Level Jacksonville Center
Sun 10:05:28 PM 32.8267 -78.3069 191° South 428 493 32,000  Level Jacksonville Center
Sun 10:06:28 PM 32.7089 -78.3428 194° South 428 493 32,000  Level Jacksonville Center
Sun 10:07:28 PM 32.5889 -78.3733 192° South 433 498 32,000  Level Jacksonville Center
Sun 10:08:28 PM 32.4733 -78.4086 194° South 433 498 32,000  Level Jacksonville Center
Sun 10:09:28 PM 32.3556 -78.4414 193° South 433 498 32,000  Level Jacksonville Center
Sun 10:10:28 PM 32.2400 -78.4792 195° South 433 498 32,000  Level Jacksonville Center
Sun 10:11:28 PM 32.1242 -78.5142 194° South 433 498 32,000  Level Jacksonville Center
Sun 10:12:28 PM 32.0064 -78.5492 194° South 428 493 32,000  Level Jacksonville Center
Sun 10:13:28 PM 31.8886 -78.5839 194° South 428 493 32,000  Level Jacksonville Center
Sun 10:14:28 PM 31.7792 -78.6136 193° South 428 493 32,000  Level Jacksonville Center
Sun 10:15:28 PM 31.6592 -78.6483 194° South 435 501 32,000  Level Jacksonville Center
Sun 10:16:28 PM 31.5433 -78.6781 192° South 428 493 32,000  Level Jacksonville Center
Sun 10:17:28 PM 31.4297 -78.7147 195° South 423 487 32,000  Level Jacksonville Center
Sun 10:18:28 PM 31.3117 -78.7492 194° South 433 498 32,000  Level Jacksonville Center
Sun 10:19:28 PM 31.1958 -78.7811 193° South 433 498 32,000  Level Jacksonville Center
Sun 10:20:28 PM 31.0800 -78.8128 193° South 433 498 32,000  Level Jacksonville Center
Sun 10:21:28 PM 30.9642 -78.8469 194° South 428 493 32,000  Level Jacksonville Center
Sun 10:22:28 PM 30.8464 -78.8808 194° South 434 499 32,000  Level Jacksonville Center
Sun 10:23:28 PM 30.7283 -78.9125 193° South 434 499 32,000  Level Jacksonville Center
Sun 10:24:28 PM 30.6103 -78.9464 194° South 429 494 32,000  Level Jacksonville Center
Sun 10:25:06 PM 30.5461 -78.9625 192° South 417 480 32,000  Level Miami Center
Sun 10:26:04 PM 30.4331 -78.9989 196° South 417 480 32,000  Level Miami Center
Sun 10:27:06 PM 30.3156 -79.0469 199° South 425 489 32,000  Level Miami Center
Sun 10:28:04 PM 30.2103 -79.1214 211° Southwest 430 495 32,000  Level Miami Center
Sun 10:29:03 PM 30.1172 -79.1986 216° Southwest 430 495 32,000  Level Miami Center
Sun 10:30:05 PM 30.0117 -79.2850 215° Southwest 430 495 32,000  Level Miami Center
Sun 10:31:03 PM 29.9250 -79.3500 213° Southwest 436 502 32,000  Level Miami Center
Sun 10:32:03 PM 29.8172 -79.4336 214° Southwest 430 495 32,000  Level Miami Center
Sun 10:33:04 PM 29.7197 -79.5150 216° Southwest 430 495 32,000  Level Miami Center
Sun 10:34:04 PM 29.6225 -79.5914 214° Southwest 430 495 32,000  Level Miami Center
Sun 10:35:03 PM 29.5250 -79.6628 213° Southwest 430 495 32,000  Level Miami Center
Sun 10:36:06 PM 29.4278 -79.7364 213° Southwest 430 495 32,000 -198 Level Miami Center
Sun 10:37:04 PM 29.3322 -79.8125 215° Southwest 430 495 31,600 -661 Descending Miami Center
Sun 10:38:04 PM 29.2328 -79.8858 213° Southwest 430 495 30,700 198 Descending Miami Center
Sun 10:39:05 PM 29.1331 -79.9639 214° Southwest 435 501 32,000 -2,118 Climbing Miami Center
Sun 10:40:03 PM 29.0375 -80.0397 215° Southwest 435 501 26,500 -4,437 Descending Miami Center
Sun 10:41:04 PM 28.9439 -80.1128 214° Southwest 430 495 23,200 -1,721 Descending Miami Center
Sun 10:42:05 PM 28.9025 -80.1994 241° Southwest 405 466 23,000 -1,343 Descending Miami Center
Sun 10:44:25 PM 28.8167 -80.4833 251° West 370 426 18,700 -1,748 Descending Orlando TRACON
Sun 10:45:31 PM 28.7667 -80.6167 247° West 390 449 17,000 -810 Descending Orlando TRACON
Sun 10:46:31 PM 28.7333 -80.7167 249° West 372 428 17,000 -200 Level Orlando TRACON
Sun 10:47:31 PM 28.7000 -80.8333 252° West 375 432 16,600 -421 Descending Orlando TRACON
Sun 10:48:25 PM 28.6667 -80.9333 249° West 373 429 16,200 -316 Descending Orlando TRACON
Sun 10:49:25 PM 28.6333 -81.0500 252° West 370 426 16,000 -104 Descending Orlando TRACON
Sun 10:50:20 PM 28.6000 -81.1500 249° West 368 423 16,000  Level Orlando TRACON
Sun 10:51:43 PM 28.5500 -81.3000 249° West 369 425 16,000 -250 Level Orlando TRACON
Sun 10:52:20 PM 28.5333 -81.3667 254° West 372 428 15,500 -932 Descending Orlando TRACON
Sun 10:53:26 PM 28.5167 -81.4833 261° West 364 419 14,400 -1,000 Descending Orlando TRACON
Sun 10:54:26 PM 28.5000 -81.6000 261° West 359 413 13,400 -778 Descending Orlando TRACON
Sun 10:56:31 PM 28.4500 -81.8167 255° West 355 409 12,000 -454 Descending Tampa TRACON
Sun 10:57:31 PM 28.4000 -81.9167 240° Southwest 344 396 12,000 -350 Level Tampa TRACON
Sun 10:58:31 PM 28.3333 -82.0000 228° Southwest 342 394 11,300 -842 Descending Tampa TRACON
Sun 10:59:25 PM 28.2667 -82.0667 221° Southwest 342 394 10,400 -889 Descending Tampa TRACON
Sun 11:00:19 PM 28.2167 -82.1333 230° Southwest 306 352 9,700 -1,053 Descending Tampa TRACON
Sun 11:01:19 PM 28.1667 -82.2000 230° Southwest 281 323 8,400 -1,450 Descending Tampa TRACON
Sun 11:02:19 PM 28.1167 -82.2667 230° Southwest 270 311 6,800 -1,600 Descending Tampa TRACON
Sun 11:03:19 PM 28.0667 -82.3167 221° Southwest 266 306 5,200 -900 Descending Tampa TRACON
Sun 11:04:19 PM 28.0167 -82.3833 230° Southwest 258 297 5,000 -700 Descending Tampa TRACON
Sun 11:05:19 PM 27.9500 -82.4167 204° Southwest 263 303 3,800 -1,000 Descending Tampa TRACON
Sun 11:06:19 PM 27.8833 -82.4333 192° South 241 277 3,000 -400 Descending Tampa TRACON
Sun 11:07:19 PM 27.8500 -82.4667 221° Southwest 201 231 3,000 -450 Level Tampa TRACON
Sun 11:08:19 PM 27.8500 -82.5333 270° West 198 228 2,100 -900 Descending Tampa TRACON

Login

Don't have an account? Register now (free) for customized features, flight alerts, and more!